Time;durP1;ratioP1;P1;durP2;ratioP2;P2;SDS_P1;SDS_P2;PMS_P1;PMS_P2;Temp;Humidity;BMP_temperature;BMP_pressure;BME280_temperature;BME280_humidity;BME280_pressure;Samples;Min_cycle;Max_cycle;Signal;HPM_P1;HPM_P2
2023/04/11 00:01:36;;;;;;;2.63;1.60;;;18.00;50.40;;;;;;5074373;28;20236;-68
2023/04/11 00:04:04;;;;;;;6.80;1.83;;;18.20;49.90;;;;;;5075739;28;20598;-66
2023/04/11 00:06:32;;;;;;;2.77;1.30;;;18.30;49.50;;;;;;5075627;28;20610;-67
2023/04/11 00:09:00;;;;;;;5.47;1.60;;;18.50;49.10;;;;;;5074095;28;20234;-68
2023/04/11 00:11:27;;;;;;;3.00;1.30;;;18.50;49.10;;;;;;5075019;28;20210;-68
2023/04/11 00:13:58;;;;;;;4.57;1.50;;;18.40;49.70;;;;;;5075589;28;20613;-65
2023/04/11 00:16:25;;;;;;;3.67;1.20;;;18.30;49.90;;;;;;5075278;28;20178;-65
2023/04/11 00:18:55;;;;;;;2.63;1.60;;;18.40;50.00;;;;;;5074639;28;20185;-68
2023/04/11 00:21:23;;;;;;;4.80;1.53;;;18.50;50.30;;;;;;5074247;28;20277;-66
2023/04/11 00:23:51;;;;;;;3.70;1.40;;;18.70;50.40;;;;;;5075269;28;20202;-65
2023/04/11 00:26:22;;;;;;;5.10;1.40;;;18.80;49.90;;;;;;5074976;28;20607;-64
2023/04/11 00:28:49;;;;;;;3.03;1.20;;;18.80;49.80;;;;;;5075199;28;20186;-67
2023/04/11 00:31:17;;;;;;;3.67;1.17;;;19.00;50.60;;;;;;5075218;28;20186;-69
2023/04/11 00:33:44;;;;;;;2.97;1.47;;;19.10;49.30;;;;;;5075081;28;20214;-64
2023/04/11 00:36:11;;;;;;;4.80;1.30;;;18.90;49.70;;;;;;5074883;28;20206;-67
2023/04/11 00:38:39;;;;;;;4.73;1.50;;;18.90;49.70;;;;;;5075030;28;20550;-66
2023/04/11 00:41:06;;;;;;;4.33;1.37;;;19.10;49.80;;;;;;5074701;28;20630;-64
2023/04/11 00:43:34;;;;;;;5.97;1.50;;;19.10;49.90;;;;;;5074683;28;20243;-67
2023/04/11 00:46:02;;;;;;;2.03;1.23;;;19.10;50.10;;;;;;5074763;28;20576;-66
2023/04/11 00:48:30;;;;;;;4.47;1.40;;;19.30;50.00;;;;;;5074665;28;20190;-65
2023/04/11 00:50:58;;;;;;;5.80;1.70;;;19.20;50.40;;;;;;5074711;28;20699;-68
2023/04/11 00:53:31;;;;;;;4.37;1.50;;;19.30;50.60;;;;;;5074785;28;20179;-66
2023/04/11 00:56:02;;;;;;;6.77;1.50;;;19.30;50.10;;;;;;5071200;28;20198;-68
2023/04/11 00:58:32;;;;;;;2.60;1.10;;;19.30;50.70;;;;;;5064990;28;20270;-68
2023/04/11 01:01:00;;;;;;;4.53;1.50;;;19.50;50.80;;;;;;5074389;28;20241;-65
2023/04/11 01:03:28;;;;;;;3.10;1.33;;;19.80;50.20;;;;;;5073702;28;20298;-65
2023/04/11 01:05:56;;;;;;;5.30;1.70;;;19.80;50.00;;;;;;5061154;28;20183;-67
2023/04/11 01:08:24;;;;;;;5.13;1.73;;;19.90;50.00;;;;;;5053485;28;20168;-66
2023/04/11 01:10:51;;;;;;;3.77;1.40;;;19.90;50.50;;;;;;5055030;28;20541;-67
2023/04/11 01:13:19;;;;;;;5.33;1.37;;;20.20;49.80;;;;;;5071901;28;20181;-65
2023/04/11 01:15:47;;;;;;;2.53;1.30;;;20.30;49.50;;;;;;5074240;28;20184;-66
2023/04/11 01:18:14;;;;;;;4.47;1.30;;;20.30;49.00;;;;;;5074232;28;20186;-65
2023/04/11 01:20:41;;;;;;;4.07;1.20;;;20.40;49.50;;;;;;5074211;28;20255;-64
2023/04/11 01:23:10;;;;;;;4.50;1.20;;;20.50;50.00;;;;;;5073924;28;20207;-65
2023/04/11 01:25:37;;;;;;;3.93;1.30;;;20.80;49.30;;;;;;5073702;28;20522;-65
2023/04/11 01:28:07;;;;;;;6.73;1.20;;;20.90;48.10;;;;;;5073269;28;20186;-66
2023/04/11 01:30:35;;;;;;;3.63;1.20;;;20.90;48.90;;;;;;5071891;28;20193;-64
2023/04/11 01:33:02;;;;;;;4.23;1.30;;;21.00;49.30;;;;;;5073406;28;20198;-66
2023/04/11 01:35:29;;;;;;;3.13;1.13;;;21.20;49.50;;;;;;5072890;28;20187;-64
2023/04/11 01:37:57;;;;;;;3.00;1.03;;;21.00;49.50;;;;;;5070653;28;20203;-68
2023/04/11 01:40:25;;;;;;;3.70;1.20;;;21.20;49.80;;;;;;5055647;28;20517;-64
2023/04/11 01:42:53;;;;;;;2.97;1.27;;;21.40;48.80;;;;;;5067532;28;20618;-67
2023/04/11 01:45:21;;;;;;;5.30;1.57;;;21.70;49.10;;;;;;5066491;28;20764;-68
2023/04/11 01:47:50;;;;;;;4.00;1.27;;;21.50;48.40;;;;;;5073064;28;20215;-70
2023/04/11 01:50:17;;;;;;;2.83;1.37;;;21.60;49.00;;;;;;5072121;28;20268;-64
2023/04/11 01:52:44;;;;;;;2.23;1.20;;;22.00;48.10;;;;;;5072922;28;20183;-66
2023/04/11 01:55:12;;;;;;;4.43;1.00;;;21.90;47.50;;;;;;5069785;28;20316;-68
2023/04/11 01:57:42;;;;;;;3.83;1.20;;;21.90;48.00;;;;;;5072672;28;20589;-66
2023/04/11 02:00:10;;;;;;;3.00;1.27;;;21.90;49.10;;;;;;5073366;28;20250;-64
2023/04/11 02:02:38;;;;;;;5.47;1.33;;;21.70;49.20;;;;;;5073202;28;20217;-67
2023/04/11 02:05:05;;;;;;;8.67;1.53;;;21.50;49.80;;;;;;5072827;28;20332;-65
2023/04/11 02:07:33;;;;;;;6.10;1.57;;;21.20;51.00;;;;;;5072788;28;20637;-66
2023/04/11 02:10:00;;;;;;;10.50;2.10;;;21.10;52.20;;;;;;5072859;28;20238;-66
2023/04/11 02:12:27;;;;;;;6.80;1.90;;;21.30;52.30;;;;;;5073047;28;20182;-68
2023/04/11 02:14:58;;;;;;;6.27;1.93;;;21.20;52.20;;;;;;5071834;28;20179;-67
2023/04/11 02:17:29;;;;;;;4.13;1.43;;;21.20;52.50;;;;;;5072887;28;20207;-68
2023/04/11 02:19:57;;;;;;;5.73;1.87;;;21.30;52.20;;;;;;5073132;28;20179;-69
2023/04/11 02:22:24;;;;;;;9.77;1.63;;;21.30;51.60;;;;;;5072879;28;20680;-69
2023/04/11 02:24:52;;;;;;;6.57;1.77;;;21.30;51.80;;;;;;5073210;28;20248;-69
2023/04/11 02:27:19;;;;;;;3.43;1.30;;;21.60;51.10;;;;;;5072937;28;20176;-71
2023/04/11 02:29:46;;;;;;;7.23;1.77;;;21.90;50.40;;;;;;5072845;28;20591;-66
2023/04/11 02:32:14;;;;;;;4.40;1.30;;;22.20;48.70;;;;;;5072938;28;20252;-66
2023/04/11 02:34:41;;;;;;;4.63;1.30;;;22.70;47.20;;;;;;5088473;28;20225;-65
2023/04/11 02:37:09;;;;;;;5.67;1.40;;;23.10;46.90;;;;;;5065654;28;20219;-66
2023/04/11 02:39:36;;;;;;;5.80;1.73;;;23.30;46.30;;;;;;5072381;28;20177;-65
2023/04/11 02:42:03;;;;;;;4.03;1.60;;;23.30;46.40;;;;;;5072283;28;20609;-64
2023/04/11 02:44:31;;;;;;;6.00;1.37;;;23.30;46.20;;;;;;5072380;28;20190;-68
2023/04/11 02:47:01;;;;;;;6.03;1.60;;;23.50;46.50;;;;;;5071084;28;20176;-66
2023/04/11 02:49:29;;;;;;;8.10;1.70;;;23.70;45.90;;;;;;5068827;28;20263;-66
2023/04/11 02:51:56;;;;;;;5.80;1.40;;;23.80;45.10;;;;;;5068030;28;20655;-66
2023/04/11 02:54:24;;;;;;;5.43;1.63;;;23.80;44.20;;;;;;5071644;28;20179;-66
2023/04/11 02:56:51;;;;;;;5.33;1.40;;;23.90;44.60;;;;;;5071625;28;20749;-65
2023/04/11 02:59:20;;;;;;;6.53;1.30;;;23.80;43.70;;;;;;5069542;28;20262;-64
2023/04/11 03:01:47;;;;;;;4.13;1.40;;;23.80;44.00;;;;;;5067146;28;20175;-65
2023/04/11 03:04:15;;;;;;;3.37;1.30;;;23.90;43.40;;;;;;5071347;28;20198;-70
2023/04/11 03:06:42;;;;;;;6.20;1.40;;;23.90;43.40;;;;;;5069183;28;20190;-67
2023/04/11 03:09:10;;;;;;;5.20;1.50;;;24.00;44.00;;;;;;5069359;28;20588;-67
2023/04/11 03:11:37;;;;;;;5.87;2.10;;;24.30;43.70;;;;;;5069443;28;20183;-65
2023/04/11 03:14:05;;;;;;;6.83;1.50;;;24.60;42.80;;;;;;5074047;28;20570;-65
2023/04/11 03:16:32;;;;;;;4.73;1.40;;;24.60;42.90;;;;;;5069628;28;20175;-65
2023/04/11 03:19:00;;;;;;;2.13;1.20;;;24.60;42.40;;;;;;5069257;28;20179;-64
2023/04/11 03:21:27;;;;;;;6.43;1.30;;;24.50;42.70;;;;;;5070528;28;20241;-66
2023/04/11 03:23:55;;;;;;;6.27;1.80;;;24.70;42.80;;;;;;5065842;28;20630;-67
2023/04/11 03:26:25;;;;;;;4.03;1.37;;;24.60;42.70;;;;;;5070749;28;20540;-65
2023/04/11 03:28:57;;;;;;;5.37;1.30;;;24.50;43.20;;;;;;5075087;28;20215;-66
2023/04/11 03:31:25;;;;;;;6.00;1.23;;;24.50;42.90;;;;;;5069020;28;20267;-65
2023/04/11 03:33:52;;;;;;;6.87;1.30;;;24.40;43.40;;;;;;5075363;28;20187;-66
2023/04/11 03:36:21;;;;;;;4.10;1.40;;;24.60;43.00;;;;;;5075218;28;20191;-64
2023/04/11 03:38:48;;;;;;;4.53;1.30;;;24.90;42.50;;;;;;5075119;28;20183;-64
2023/04/11 03:41:16;;;;;;;6.67;1.73;;;24.80;43.20;;;;;;5073219;28;20237;-66
2023/04/11 03:43:43;;;;;;;6.10;1.50;;;25.50;42.30;;;;;;5074901;28;20222;-67
2023/04/11 03:46:10;;;;;;;7.07;1.50;;;25.40;42.10;;;;;;5074332;28;20191;-66
2023/04/11 03:48:38;;;;;;;3.70;1.33;;;25.80;41.30;;;;;;5072928;28;20187;-67
2023/04/11 03:51:06;;;;;;;11.20;1.90;;;25.80;41.40;;;;;;5071010;28;20193;-65
2023/04/11 03:53:34;;;;;;;6.47;1.37;;;25.50;41.30;;;;;;5073592;28;20186;-66
2023/04/11 03:56:02;;;;;;;6.70;1.90;;;25.80;41.00;;;;;;5071927;28;20183;-67
2023/04/11 03:58:35;;;;;;;4.17;1.10;;;25.50;41.60;;;;;;5074536;28;20608;-67
2023/04/11 04:01:02;;;;;;;7.03;1.40;;;25.30;41.70;;;;;;5072510;28;20191;-67
2023/04/11 04:03:29;;;;;;;4.20;1.33;;;25.00;42.90;;;;;;5074363;28;20214;-66
2023/04/11 04:05:57;;;;;;;5.37;1.60;;;25.20;42.60;;;;;;5074746;28;20703;-70
2023/04/11 04:08:24;;;;;;;13.20;3.83;;;25.40;42.70;;;;;;5073729;28;20316;-70
2023/04/11 04:10:51;;;;;;;9.07;1.80;;;25.60;42.80;;;;;;5074626;28;20183;-66
2023/04/11 04:13:19;;;;;;;6.13;1.40;;;25.80;42.80;;;;;;5074530;28;20183;-67
2023/04/11 04:15:46;;;;;;;6.50;1.67;;;26.10;41.70;;;;;;5072937;28;20192;-68
2023/04/11 04:18:14;;;;;;;4.33;1.50;;;26.10;41.60;;;;;;5073778;28;20180;-67
2023/04/11 04:20:42;;;;;;;4.47;1.50;;;25.60;42.10;;;;;;5072060;28;20171;-69
2023/04/11 04:23:12;;;;;;;6.17;1.93;;;25.20;43.60;;;;;;5074213;28;20270;-65
2023/04/11 04:25:41;;;;;;;6.27;1.60;;;25.80;42.60;;;;;;5073570;28;20179;-67
2023/04/11 04:28:09;;;;;;;6.80;1.83;;;26.00;41.40;;;;;;5074440;28;20237;-68
2023/04/11 04:30:37;;;;;;;7.07;1.80;;;25.60;42.40;;;;;;5073517;28;20171;-70
2023/04/11 04:33:04;;;;;;;4.73;1.20;;;25.70;41.70;;;;;;5072007;28;20514;-66
2023/04/11 04:35:31;;;;;;;4.43;1.43;;;25.90;40.70;;;;;;5075294;28;20646;-66
2023/04/11 04:38:04;;;;;;;7.73;1.47;;;25.30;41.60;;;;;;5069731;28;20187;-67
2023/04/11 04:40:36;;;;;;;8.43;1.80;;;24.60;44.20;;;;;;5072901;28;20183;-71
2023/04/11 04:43:07;;;;;;;24.00;3.60;;;23.50;47.70;;;;;;5074184;28;20241;-70
2023/04/11 04:45:35;;;;;;;8.70;1.77;;;23.30;49.50;;;;;;5074276;28;20180;-70
2023/04/11 04:48:02;;;;;;;8.83;1.73;;;23.40;50.60;;;;;;5074934;28;20188;-67
2023/04/11 04:50:29;;;;;;;6.83;1.70;;;23.30;49.60;;;;;;5073686;28;20250;-69
2023/04/11 04:52:57;;;;;;;7.00;1.80;;;22.90;50.30;;;;;;5073586;28;20641;-70
2023/04/11 04:55:24;;;;;;;8.93;1.90;;;22.90;49.50;;;;;;5073895;28;20190;-71
2023/04/11 04:57:52;;;;;;;5.00;1.53;;;22.80;49.80;;;;;;5074382;28;20175;-69
2023/04/11 05:00:19;;;;;;;5.57;1.60;;;22.80;49.50;;;;;;5074709;28;20167;-71
2023/04/11 05:02:46;;;;;;;4.20;1.60;;;22.40;49.80;;;;;;5073850;28;20286;-69
2023/04/11 05:05:14;;;;;;;11.03;2.07;;;22.30;50.50;;;;;;5073133;28;20207;-72
2023/04/11 05:07:42;;;;;;;8.93;1.80;;;22.30;51.00;;;;;;5074345;28;20186;-70
2023/04/11 05:10:09;;;;;;;7.07;2.03;;;22.10;51.60;;;;;;5074370;28;20222;-67
2023/04/11 05:12:36;;;;;;;12.73;2.40;;;22.00;51.60;;;;;;5074470;28;20256;-65
2023/04/11 05:15:08;;;;;;;9.87;2.03;;;21.90;51.80;;;;;;5073856;28;20191;-68
2023/04/11 05:17:35;;;;;;;13.27;2.30;;;21.80;52.00;;;;;;5074429;28;20183;-70
2023/04/11 05:20:05;;;;;;;6.87;2.00;;;21.70;51.40;;;;;;5074112;28;20180;-65
2023/04/11 05:22:32;;;;;;;9.83;2.40;;;21.70;52.40;;;;;;5072799;28;20218;-68
2023/04/11 05:25:00;;;;;;;8.27;2.40;;;21.80;52.90;;;;;;5073607;28;20183;-65
2023/04/11 05:27:27;;;;;;;7.67;2.20;;;21.80;52.90;;;;;;5073071;28;20194;-67
2023/04/11 05:29:54;;;;;;;13.23;2.40;;;21.70;53.10;;;;;;5073971;28;20183;-68
2023/04/11 05:32:22;;;;;;;8.07;2.17;;;21.60;53.30;;;;;;5062698;28;20209;-66
2023/04/11 05:34:56;;;;;;;10.40;2.07;;;21.60;52.40;;;;;;5058271;28;20264;-65
2023/04/11 05:37:25;;;;;;;8.73;2.40;;;21.30;53.00;;;;;;5059535;28;20355;-68
2023/04/11 05:39:55;;;;;;;7.40;2.03;;;21.30;51.60;;;;;;5072774;28;20179;-67
2023/04/11 05:42:22;;;;;;;8.63;2.13;;;21.30;50.80;;;;;;5073372;28;20567;-67
2023/04/11 05:44:49;;;;;;;8.50;2.30;;;21.30;51.90;;;;;;5072169;28;20194;-66
2023/04/11 05:47:17;;;;;;;7.40;2.30;;;21.20;52.10;;;;;;5066788;28;20238;-66
2023/04/11 05:49:44;;;;;;;8.13;1.90;;;21.20;52.00;;;;;;5072178;28;20250;-66
2023/04/11 05:52:11;;;;;;;10.87;2.57;;;21.30;52.00;;;;;;5052809;28;20245;-67
2023/04/11 05:54:39;;;;;;;5.97;2.43;;;21.10;52.30;;;;;;5073258;28;20549;-68
2023/04/11 05:57:07;;;;;;;11.53;2.37;;;21.00;52.50;;;;;;5071808;28;20719;-66
2023/04/11 05:59:35;;;;;;;11.03;2.23;;;21.00;52.70;;;;;;5071140;28;20187;-66
2023/04/11 06:02:02;;;;;;;10.93;2.87;;;20.90;53.30;;;;;;5070785;28;20198;-66
2023/04/11 06:04:30;;;;;;;12.80;2.90;;;20.90;53.20;;;;;;5063122;28;20214;-67
2023/04/11 06:06:57;;;;;;;9.63;2.63;;;20.80;54.20;;;;;;5064753;28;20572;-65
2023/04/11 06:09:25;;;;;;;11.37;2.07;;;20.90;54.60;;;;;;5062698;28;20230;-66
2023/04/11 06:11:52;;;;;;;10.73;2.33;;;20.80;55.00;;;;;;5069775;28;20232;-66
2023/04/11 06:14:20;;;;;;;11.27;2.60;;;20.80;55.60;;;;;;5071164;28;20195;-67
2023/04/11 06:16:47;;;;;;;8.27;2.20;;;20.80;56.30;;;;;;5069480;28;20213;-66
2023/04/11 06:19:15;;;;;;;17.57;2.57;;;20.70;56.50;;;;;;5071970;28;20191;-67
2023/04/11 06:21:42;;;;;;;14.33;3.23;;;20.70;56.50;;;;;;5070686;28;20179;-65
2023/04/11 06:24:10;;;;;;;9.83;2.20;;;20.60;56.30;;;;;;5074682;28;20248;-66
2023/04/11 06:26:37;;;;;;;9.53;2.23;;;20.60;56.90;;;;;;5068864;28;20172;-67
2023/04/11 06:29:06;;;;;;;13.00;2.97;;;20.70;56.80;;;;;;5068422;28;20270;-66
2023/04/11 06:31:34;;;;;;;16.60;2.40;;;20.60;56.90;;;;;;5071143;28;20183;-67
2023/04/11 06:34:02;;;;;;;10.43;2.40;;;20.70;57.20;;;;;;5069361;28;20598;-67
2023/04/11 06:36:30;;;;;;;10.43;2.30;;;20.70;57.00;;;;;;5071951;28;20213;-67
2023/04/11 06:38:57;;;;;;;8.37;1.80;;;20.70;56.70;;;;;;5069813;28;20218;-68
2023/04/11 06:41:24;;;;;;;10.63;2.07;;;20.70;56.80;;;;;;5074655;28;20178;-66
2023/04/11 06:43:52;;;;;;;11.73;1.97;;;20.80;56.70;;;;;;5069910;28;20226;-65
2023/04/11 06:46:19;;;;;;;8.97;1.93;;;20.80;56.40;;;;;;5071618;28;20204;-66
2023/04/11 06:48:47;;;;;;;12.00;2.30;;;20.80;55.40;;;;;;5067985;28;20179;-68
2023/04/11 06:51:14;;;;;;;10.90;2.27;;;20.80;55.30;;;;;;5069991;28;20214;-66
2023/04/11 06:53:41;;;;;;;6.00;1.97;;;20.80;54.90;;;;;;5069955;28;20175;-66
2023/04/11 06:56:10;;;;;;;5.97;2.00;;;20.80;54.00;;;;;;5071858;28;20199;-65
2023/04/11 06:58:37;;;;;;;4.33;1.53;;;20.80;52.70;;;;;;5070205;28;20190;-72
2023/04/11 07:01:05;;;;;;;7.00;1.87;;;20.70;51.80;;;;;;5063720;28;20194;-66
2023/04/11 07:03:32;;;;;;;5.43;1.50;;;20.70;51.70;;;;;;5063864;28;20682;-66
2023/04/11 07:06:00;;;;;;;5.43;1.47;;;20.80;51.60;;;;;;5070881;28;20183;-67
2023/04/11 07:08:27;;;;;;;6.37;1.73;;;20.70;51.80;;;;;;5070076;28;20546;-66
2023/04/11 07:10:54;;;;;;;4.17;1.77;;;20.50;52.20;;;;;;5069754;28;20191;-65
2023/04/11 07:13:22;;;;;;;7.60;2.03;;;20.40;52.90;;;;;;5069114;28;20195;-67
2023/04/11 07:15:49;;;;;;;7.83;1.90;;;20.30;53.40;;;;;;5068951;28;20193;-65
2023/04/11 07:18:17;;;;;;;6.80;1.77;;;20.20;53.90;;;;;;5069590;28;20186;-65
2023/04/11 07:20:45;;;;;;;9.33;1.93;;;20.10;53.90;;;;;;5070871;28;20228;-70
2023/04/11 07:23:12;;;;;;;7.80;1.80;;;20.00;54.00;;;;;;5070552;28;20214;-72
2023/04/11 07:25:40;;;;;;;3.70;1.23;;;19.90;54.60;;;;;;5069493;28;20614;-68
2023/04/11 07:28:07;;;;;;;7.07;2.10;;;19.80;55.00;;;;;;5069655;28;20226;-71
2023/04/11 07:30:35;;;;;;;6.30;1.97;;;19.80;55.60;;;;;;5070466;28;20194;-68
2023/04/11 07:33:03;;;;;;;7.17;1.80;;;19.70;55.90;;;;;;5071286;28;20279;-70
2023/04/11 07:35:35;;;;;;;7.07;1.70;;;19.70;56.60;;;;;;5070081;28;20218;-69
2023/04/11 07:38:03;;;;;;;8.93;2.70;;;19.60;57.20;;;;;;5070342;28;20179;-69
2023/04/11 07:40:32;;;;;;;8.13;1.83;;;19.60;58.10;;;;;;5067075;28;20650;-67
2023/04/11 07:43:00;;;;;;;10.20;2.37;;;19.40;59.20;;;;;;5064142;28;20688;-66
2023/04/11 07:45:28;;;;;;;6.37;2.23;;;19.40;59.70;;;;;;5069799;28;20187;-66
2023/04/11 07:47:55;;;;;;;5.47;1.87;;;19.30;60.10;;;;;;5071901;28;20199;-66
2023/04/11 07:50:22;;;;;;;8.70;2.03;;;19.30;60.50;;;;;;5070953;28;20207;-66
2023/04/11 07:52:50;;;;;;;5.53;1.80;;;19.20;61.30;;;;;;5080899;28;20183;-65
2023/04/11 07:55:17;;;;;;;4.50;2.30;;;19.20;61.50;;;;;;5070054;28;20237;-65
2023/04/11 07:57:45;;;;;;;10.13;2.27;;;19.20;62.30;;;;;;5081807;28;20186;-71
2023/04/11 08:00:22;;;;;;;8.53;2.83;;;19.10;63.00;;;;;;5071608;28;20187;-66
2023/04/11 08:02:51;;;;;;;10.63;2.90;;;19.10;63.60;;;;;;5071595;28;20215;-65
2023/04/11 08:05:18;;;;;;;10.73;2.97;;;19.00;63.90;;;;;;5068881;28;20676;-65
2023/04/11 08:07:45;;;;;;;8.77;2.03;;;19.00;64.40;;;;;;5071065;28;20263;-65
2023/04/11 08:10:13;;;;;;;11.97;2.90;;;19.00;64.20;;;;;;5069300;28;20230;-67
2023/04/11 08:12:40;;;;;;;12.10;3.00;;;19.00;64.50;;;;;;5076301;28;20182;-65
2023/04/11 08:15:08;;;;;;;7.80;2.27;;;19.00;64.60;;;;;;5075010;28;20529;-65
2023/04/11 08:17:37;;;;;;;8.63;2.37;;;19.00;64.60;;;;;;5071260;28;20187;-66
2023/04/11 08:20:08;;;;;;;11.00;2.40;;;18.90;64.60;;;;;;5072343;28;20288;-68
2023/04/11 08:22:35;;;;;;;9.13;2.53;;;18.90;64.60;;;;;;5072457;28;20672;-66
2023/04/11 08:25:02;;;;;;;10.20;3.23;;;18.90;64.50;;;;;;5075205;28;20183;-67
2023/04/11 08:27:31;;;;;;;11.43;2.73;;;18.90;64.90;;;;;;5071989;28;20538;-67
2023/04/11 08:29:59;;;;;;;10.13;2.30;;;18.80;64.80;;;;;;5073291;28;20183;-67
2023/04/11 08:32:26;;;;;;;12.83;3.00;;;18.80;64.90;;;;;;5072242;28;20183;-67
2023/04/11 08:34:54;;;;;;;7.43;2.33;;;18.80;65.10;;;;;;5066665;28;20257;-65
2023/04/11 08:37:21;;;;;;;8.20;2.07;;;18.80;65.00;;;;;;5068552;28;20252;-66
2023/04/11 08:39:48;;;;;;;9.93;2.30;;;18.70;64.30;;;;;;5072298;28;20186;-64
2023/04/11 08:42:26;;;;;;;7.93;2.23;;;18.80;63.90;;;;;;5074656;28;20211;-65
2023/04/11 08:45:03;;;;;;;11.57;2.27;;;18.80;64.00;;;;;;5074586;28;20178;-65
2023/04/11 08:47:31;;;;;;;8.13;2.13;;;18.80;64.00;;;;;;5074464;28;20181;-65
2023/04/11 08:49:58;;;;;;;7.17;2.20;;;18.70;64.20;;;;;;5073072;28;20190;-67
2023/04/11 08:52:26;;;;;;;10.43;3.03;;;18.60;64.60;;;;;;5072524;28;20179;-65
2023/04/11 08:54:54;;;;;;;6.60;2.00;;;18.60;64.90;;;;;;5070931;28;20187;-64
2023/04/11 08:57:27;;;;;;;6.13;2.03;;;18.60;64.60;;;;;;5069119;28;20266;-64
2023/04/11 09:00:01;;;;;;;12.03;2.37;;;18.50;64.70;;;;;;5071869;28;20249;-66
2023/04/11 09:02:28;;;;;;;9.60;2.97;;;18.50;65.00;;;;;;5071021;28;20207;-65
2023/04/11 09:04:56;;;;;;;9.33;2.57;;;18.40;65.40;;;;;;5072554;28;20268;-65
2023/04/11 09:07:23;;;;;;;9.90;3.07;;;18.40;65.80;;;;;;5068634;28;20233;-70
2023/04/11 09:09:51;;;;;;;8.33;2.60;;;18.40;65.80;;;;;;5072817;28;20207;-65
2023/04/11 09:12:28;;;;;;;10.50;3.00;;;18.30;66.10;;;;;;5074326;28;20179;-69
2023/04/11 09:14:55;;;;;;;10.90;2.80;;;18.30;66.10;;;;;;5074962;28;20190;-65
2023/04/11 09:17:22;;;;;;;8.07;2.77;;;18.30;66.40;;;;;;5074104;28;20163;-67
2023/04/11 09:19:50;;;;;;;9.50;2.90;;;18.30;66.60;;;;;;5074200;28;20175;-64
2023/04/11 09:22:17;;;;;;;10.63;2.80;;;18.20;66.70;;;;;;5073974;28;20754;-66
2023/04/11 09:25:00;;;;;;;7.93;3.30;;;18.20;66.70;;;;;;5072957;28;20206;-65
2023/04/11 09:27:27;;;;;;;11.90;3.13;;;18.00;67.00;;;;;;5071019;28;20244;-66
2023/04/11 09:29:55;;;;;;;11.33;2.97;;;17.90;67.20;;;;;;5080179;28;20183;-64
2023/04/11 09:32:33;;;;;;;10.53;2.30;;;17.90;67.90;;;;;;5068765;28;20287;-65
2023/04/11 09:35:21;;;;;;;5.90;2.37;;;18.00;67.60;;;;;;5074001;28;20308;-65
2023/04/11 09:37:57;;;;;;;12.13;2.73;;;18.00;67.60;;;;;;5059573;28;20588;-65
2023/04/11 09:40:27;;;;;;;9.30;2.90;;;17.90;67.90;;;;;;5072098;28;20565;-66
2023/04/11 09:42:59;;;;;;;7.27;2.97;;;17.90;68.20;;;;;;5072785;28;20230;-66
2023/04/11 09:45:28;;;;;;;13.53;3.40;;;17.90;68.60;;;;;;5068145;28;20183;-69
2023/04/11 09:47:57;;;;;;;16.07;2.93;;;17.80;68.50;;;;;;5073622;28;20179;-65
2023/04/11 09:50:26;;;;;;;10.50;2.67;;;17.80;69.10;;;;;;5072319;28;20241;-66
2023/04/11 09:52:57;;;;;;;13.77;2.60;;;17.70;69.20;;;;;;5072725;28;20519;-66
2023/04/11 09:55:25;;;;;;;14.10;3.00;;;17.70;69.40;;;;;;5066384;28;20195;-65
2023/04/11 09:57:54;;;;;;;12.67;2.70;;;17.80;69.50;;;;;;5070256;28;20183;-70
2023/04/11 10:00:28;;;;;;;15.63;3.43;;;17.80;69.10;;;;;;5068444;28;20185;-70
2023/04/11 10:02:56;;;;;;;10.57;2.77;;;17.80;69.30;;;;;;5067143;28;20207;-67
2023/04/11 10:05:28;;;;;;;12.50;2.90;;;17.80;69.40;;;;;;5066975;28;20185;-68
2023/04/11 10:08:20;;;;;;;12.20;3.37;;;17.80;69.20;;;;;;5071723;28;20183;-70
2023/04/11 10:10:47;;;;;;;15.13;2.93;;;17.80;69.30;;;;;;5072804;28;20191;-69
2023/04/11 10:13:39;;;;;;;7.07;2.90;;;17.70;69.50;;;;;;5071877;28;20734;-70
2023/04/11 10:16:07;;;;;;;11.13;3.13;;;17.70;69.50;;;;;;5072096;28;20187;-69
2023/04/11 10:18:36;;;;;;;12.97;2.77;;;17.70;69.60;;;;;;5069246;28;20732;-72
2023/04/11 10:21:04;;;;;;;9.20;2.80;;;17.60;70.00;;;;;;5071836;28;20190;-73
2023/04/11 10:24:10;;;;;;;8.07;2.87;;;17.60;70.00;;;;;;5071207;28;20272;-72
2023/04/11 10:26:52;;;;;;;10.27;3.17;;;17.70;69.40;;;;;;5072502;28;20287;-69
2023/04/11 10:29:45;;;;;;;10.67;3.00;;;17.70;69.00;;;;;;5072274;28;20668;-67
2023/04/11 10:32:16;;;;;;;9.90;3.10;;;17.70;69.20;;;;;;5053922;28;20194;-65
2023/04/11 10:34:52;;;;;;;14.53;3.07;;;17.70;69.40;;;;;;5071901;28;20187;-64
2023/04/11 10:37:32;;;;;;;15.43;3.37;;;17.50;69.60;;;;;;5071320;28;20206;-65
2023/04/11 10:40:08;;;;;;;16.43;4.10;;;17.50;70.10;;;;;;5072259;28;20185;-65
2023/04/11 10:42:40;;;;;;;15.77;3.70;;;17.50;70.00;;;;;;5060167;28;20630;-64
2023/04/11 10:45:22;;;;;;;11.10;3.60;;;17.50;70.00;;;;;;5068544;28;20187;-65
2023/04/11 10:47:58;;;;;;;18.13;3.87;;;17.60;70.00;;;;;;5062776;28;20638;-68
2023/04/11 10:50:31;;;;;;;12.40;3.60;;;17.50;70.10;;;;;;5071658;28;20179;-64
2023/04/11 10:53:03;;;;;;;9.53;2.80;;;17.50;70.40;;;;;;5070302;28;20241;-69
2023/04/11 10:55:51;;;;;;;12.43;3.00;;;17.50;70.30;;;;;;5065805;28;20175;-67
2023/04/11 10:58:21;;;;;;;16.97;3.30;;;17.50;70.40;;;;;;5070284;28;20182;-64
2023/04/11 11:00:58;;;;;;;12.87;3.30;;;17.50;70.60;;;;;;5072368;28;20220;-67
2023/04/11 11:03:29;;;;;;;13.93;3.30;;;17.40;70.80;;;;;;5071661;28;20219;-66
2023/04/11 11:06:05;;;;;;;14.47;3.43;;;17.30;70.80;;;;;;5072224;28;20255;-64
2023/04/11 11:08:45;;;;;;;9.80;3.13;;;17.30;71.10;;;;;;5069983;28;20578;-66
2023/04/11 11:11:18;;;;;;;9.63;3.00;;;17.30;71.20;;;;;;5071246;28;20190;-64
2023/04/11 11:13:49;;;;;;;10.17;3.00;;;17.20;71.40;;;;;;5067844;28;20248;-65
2023/04/11 11:16:18;;;;;;;13.07;2.80;;;17.20;71.70;;;;;;5071997;28;20234;-65
2023/04/11 11:18:50;;;;;;;10.53;2.50;;;17.20;71.70;;;;;;5067797;28;20642;-66
2023/04/11 11:21:22;;;;;;;8.47;2.60;;;17.20;71.90;;;;;;5069273;28;20187;-66
2023/04/11 11:24:00;;;;;;;14.10;3.03;;;17.20;72.20;;;;;;5071227;28;20268;-65
2023/04/11 11:26:45;;;;;;;10.67;3.00;;;17.20;72.20;;;;;;5065448;28;20202;-66
2023/04/11 11:29:12;;;;;;;7.83;2.70;;;17.20;72.30;;;;;;5071485;28;20522;-64
2023/04/11 11:31:45;;;;;;;8.83;2.57;;;17.20;72.30;;;;;;5072334;28;20238;-65
2023/04/11 11:34:13;;;;;;;12.20;3.23;;;17.20;72.40;;;;;;5071709;28;20194;-66
2023/04/11 11:36:43;;;;;;;11.03;2.50;;;17.20;72.50;;;;;;5066418;28;20240;-66
2023/04/11 11:39:11;;;;;;;11.03;2.70;;;17.10;72.70;;;;;;5071589;28;20289;-67
2023/04/11 11:41:40;;;;;;;12.83;3.00;;;17.10;73.20;;;;;;5071889;28;20183;-65
2023/04/11 11:44:20;;;;;;;13.07;3.00;;;17.10;73.40;;;;;;5069728;28;20753;-65
2023/04/11 11:47:08;;;;;;;9.87;3.07;;;17.10;73.40;;;;;;5069874;28;20183;-67
2023/04/11 11:49:49;;;;;;;8.00;2.53;;;17.10;73.40;;;;;;5075079;28;20201;-67
2023/04/11 11:52:38;;;;;;;10.57;2.77;;;17.00;73.40;;;;;;5061944;28;20187;-67
2023/04/11 11:55:09;;;;;;;10.33;2.50;;;16.80;73.80;;;;;;5073546;28;20266;-69
2023/04/11 11:57:36;;;;;;;10.77;2.97;;;16.80;74.10;;;;;;5072425;28;20629;-67
2023/04/11 12:00:04;;;;;;;11.03;2.97;;;16.80;74.20;;;;;;5075139;28;20677;-65
2023/04/11 12:02:35;;;;;;;12.07;2.90;;;16.70;74.50;;;;;;5075323;28;20233;-67
2023/04/11 12:05:06;;;;;;;13.30;3.27;;;16.70;74.50;;;;;;5078821;28;20187;-66
2023/04/11 12:07:37;;;;;;;10.87;3.07;;;16.70;74.90;;;;;;5075011;28;20978;-67
2023/04/11 12:10:07;;;;;;;15.73;3.80;;;16.70;74.80;;;;;;5075330;28;20219;-67
2023/04/11 12:12:41;;;;;;;13.63;3.20;;;16.60;75.10;;;;;;5074573;28;20208;-70
2023/04/11 12:15:16;;;;;;;10.73;2.87;;;16.60;75.00;;;;;;5075312;28;20244;-69
2023/04/11 12:17:56;;;;;;;11.50;3.30;;;16.50;75.20;;;;;;5074197;28;20214;-65
2023/04/11 12:20:25;;;;;;;11.17;2.80;;;16.50;75.40;;;;;;5074753;28;20186;-65
2023/04/11 12:22:53;;;;;;;12.80;3.00;;;16.50;75.60;;;;;;5073542;28;20206;-66
2023/04/11 12:25:21;;;;;;;10.60;3.33;;;16.50;75.70;;;;;;5074346;28;20248;-66
2023/04/11 12:27:48;;;;;;;10.50;2.80;;;16.50;75.80;;;;;;5074531;28;20178;-66
2023/04/11 12:30:16;;;;;;;9.13;2.90;;;16.40;75.70;;;;;;5073710;28;20190;-65
2023/04/11 12:32:44;;;;;;;10.63;2.87;;;16.50;75.90;;;;;;5073314;28;20281;-66
2023/04/11 12:35:12;;;;;;;10.27;2.90;;;16.40;76.00;;;;;;5074446;28;20182;-68
2023/04/11 12:37:40;;;;;;;12.83;3.53;;;16.40;75.80;;;;;;5073985;28;20187;-68
2023/04/11 12:40:11;;;;;;;7.50;2.50;;;16.40;76.10;;;;;;5077157;28;20176;-68
2023/04/11 12:42:44;;;;;;;8.47;2.53;;;16.40;75.90;;;;;;5072741;28;20669;-72
2023/04/11 12:45:13;;;;;;;12.90;2.80;;;16.40;76.10;;;;;;5072127;28;20211;-72
2023/04/11 12:47:40;;;;;;;11.73;2.77;;;16.30;76.10;;;;;;5072790;28;20229;-65
2023/04/11 12:50:09;;;;;;;10.13;2.80;;;16.30;76.20;;;;;;5062237;28;20195;-63
2023/04/11 12:52:37;;;;;;;6.70;2.33;;;16.30;76.20;;;;;;5073366;28;20276;-64
2023/04/11 12:55:06;;;;;;;8.40;2.80;;;16.30;76.50;;;;;;5067313;28;20219;-64